sensor_id;sensor_type;location;lat;lon;timestamp;pressure;altitude;pressure_sealevel;temperature;humidity
41334;BME280;27078;46.428;6.256;2022-09-01T00:00:18;96466.13;;;18.40;100.00
41334;BME280;27078;46.428;6.256;2022-09-01T00:02:47;96462.16;;;18.36;100.00
41334;BME280;27078;46.428;6.256;2022-09-01T00:05:14;96462.63;;;18.40;100.00
41334;BME280;27078;46.428;6.256;2022-09-01T00:07:40;96455.81;;;18.37;100.00
41334;BME280;27078;46.428;6.256;2022-09-01T00:10:07;96455.16;;;18.35;100.00
41334;BME280;27078;46.428;6.256;2022-09-01T00:12:33;96455.16;;;18.35;100.00
41334;BME280;27078;46.428;6.256;2022-09-01T00:14:58;96451.63;;;18.35;100.00
41334;BME280;27078;46.428;6.256;2022-09-01T00:17:24;96455.34;;;18.34;100.00
41334;BME280;27078;46.428;6.256;2022-09-01T00:19:49;96444.19;;;18.30;100.00
41334;BME280;27078;46.428;6.256;2022-09-01T00:22:15;96441.88;;;18.27;100.00
41334;BME280;27078;46.428;6.256;2022-09-01T00:24:40;96437.28;;;18.21;100.00
41334;BME280;27078;46.428;6.256;2022-09-01T00:27:06;96438.84;;;18.15;100.00
41334;BME280;27078;46.428;6.256;2022-09-01T00:29:31;96445.56;;;18.11;100.00
41334;BME280;27078;46.428;6.256;2022-09-01T00:31:57;96441.75;;;18.05;100.00
41334;BME280;27078;46.428;6.256;2022-09-01T00:34:22;96433.94;;;18.04;100.00
41334;BME280;27078;46.428;6.256;2022-09-01T00:36:48;96435.97;;;18.02;100.00
41334;BME280;27078;46.428;6.256;2022-09-01T00:39:13;96436.53;;;17.97;100.00
41334;BME280;27078;46.428;6.256;2022-09-01T00:41:40;96431.53;;;17.94;100.00
41334;BME280;27078;46.428;6.256;2022-09-01T00:44:14;96433.28;;;17.87;100.00
41334;BME280;27078;46.428;6.256;2022-09-01T00:46:45;96433.63;;;17.84;100.00
41334;BME280;27078;46.428;6.256;2022-09-01T00:49:14;96439.63;;;17.86;100.00
41334;BME280;27078;46.428;6.256;2022-09-01T00:51:42;96439.56;;;17.94;100.00
41334;BME280;27078;46.428;6.256;2022-09-01T00:54:11;96441.16;;;18.03;100.00
41334;BME280;27078;46.428;6.256;2022-09-01T00:56:39;96437.91;;;18.08;100.00
41334;BME280;27078;46.428;6.256;2022-09-01T00:59:06;96444.25;;;18.22;100.00
41334;BME280;27078;46.428;6.256;2022-09-01T01:01:33;96438.66;;;18.31;100.00
41334;BME280;27078;46.428;6.256;2022-09-01T01:04:04;96447.41;;;18.40;100.00
41334;BME280;27078;46.428;6.256;2022-09-01T01:06:30;96450.06;;;18.40;100.00
41334;BME280;27078;46.428;6.256;2022-09-01T01:08:58;96447.41;;;18.40;100.00
41334;BME280;27078;46.428;6.256;2022-09-01T01:11:27;96440.03;;;18.42;100.00
41334;BME280;27078;46.428;6.256;2022-09-01T01:13:54;96440.94;;;18.20;100.00
41334;BME280;27078;46.428;6.256;2022-09-01T01:16:22;96447.56;;;18.09;100.00
41334;BME280;27078;46.428;6.256;2022-09-01T01:18:48;96453.84;;;18.01;100.00
41334;BME280;27078;46.428;6.256;2022-09-01T01:21:18;96453.28;;;17.91;100.00
41334;BME280;27078;46.428;6.256;2022-09-01T01:24:25;96457.63;;;18.07;100.00
41334;BME280;27078;46.428;6.256;2022-09-01T01:26:52;96447.88;;;18.14;100.00
41334;BME280;27078;46.428;6.256;2022-09-01T01:29:19;96458.56;;;18.14;100.00
41334;BME280;27078;46.428;6.256;2022-09-01T01:31:46;96454.38;;;18.11;100.00
41334;BME280;27078;46.428;6.256;2022-09-01T01:34:18;96456.16;;;18.04;100.00
41334;BME280;27078;46.428;6.256;2022-09-01T01:36:43;96466.56;;;17.99;100.00
41334;BME280;27078;46.428;6.256;2022-09-01T01:39:10;96457.97;;;17.89;100.00
41334;BME280;27078;46.428;6.256;2022-09-01T01:41:39;96464.78;;;17.92;100.00
41334;BME280;27078;46.428;6.256;2022-09-01T01:44:08;96465.38;;;17.79;100.00
41334;BME280;27078;46.428;6.256;2022-09-01T01:46:35;96465.72;;;17.76;100.00
41334;BME280;27078;46.428;6.256;2022-09-01T01:49:01;96461.00;;;17.63;100.00
41334;BME280;27078;46.428;6.256;2022-09-01T01:51:27;96455.81;;;17.46;100.00
41334;BME280;27078;46.428;6.256;2022-09-01T01:53:56;96455.81;;;17.46;100.00
41334;BME280;27078;46.428;6.256;2022-09-01T01:56:30;96453.72;;;17.57;100.00
41334;BME280;27078;46.428;6.256;2022-09-01T01:58:57;96451.53;;;17.60;100.00
41334;BME280;27078;46.428;6.256;2022-09-01T02:01:25;96463.19;;;17.44;100.00
41334;BME280;27078;46.428;6.256;2022-09-01T02:03:53;96462.88;;;17.39;100.00
41334;BME280;27078;46.428;6.256;2022-09-01T02:06:21;96468.91;;;17.33;100.00
41334;BME280;27078;46.428;6.256;2022-09-01T02:08:54;96468.50;;;17.21;100.00
41334;BME280;27078;46.428;6.256;2022-09-01T02:11:27;96469.81;;;17.25;100.00
41334;BME280;27078;46.428;6.256;2022-09-01T02:13:53;96467.69;;;17.21;100.00
41334;BME280;27078;46.428;6.256;2022-09-01T02:16:22;96462.56;;;17.11;100.00
41334;BME280;27078;46.428;6.256;2022-09-01T02:18:48;96476.66;;;16.97;100.00
41334;BME280;27078;46.428;6.256;2022-09-01T02:21:16;96476.78;;;17.03;100.00
41334;BME280;27078;46.428;6.256;2022-09-01T02:23:46;96464.59;;;17.09;100.00
41334;BME280;27078;46.428;6.256;2022-09-01T02:26:13;96468.72;;;17.12;100.00
41334;BME280;27078;46.428;6.256;2022-09-01T02:28:41;96467.63;;;17.06;100.00
41334;BME280;27078;46.428;6.256;2022-09-01T02:31:09;96465.03;;;16.89;100.00
41334;BME280;27078;46.428;6.256;2022-09-01T02:33:36;96469.06;;;16.85;100.00
41334;BME280;27078;46.428;6.256;2022-09-01T02:36:11;96473.84;;;16.90;100.00
41334;BME280;27078;46.428;6.256;2022-09-01T02:38:38;96473.69;;;16.92;100.00
41334;BME280;27078;46.428;6.256;2022-09-01T02:41:07;96475.38;;;16.76;100.00
41334;BME280;27078;46.428;6.256;2022-09-01T02:43:32;96468.41;;;16.75;100.00
41334;BME280;27078;46.428;6.256;2022-09-01T02:45:59;96472.78;;;16.68;100.00
41334;BME280;27078;46.428;6.256;2022-09-01T02:48:45;96474.78;;;16.66;100.00
41334;BME280;27078;46.428;6.256;2022-09-01T02:51:17;96469.78;;;16.63;100.00
41334;BME280;27078;46.428;6.256;2022-09-01T02:53:44;96476.03;;;16.47;100.00
41334;BME280;27078;46.428;6.256;2022-09-01T02:56:12;96468.84;;;16.56;100.00
41334;BME280;27078;46.428;6.256;2022-09-01T02:58:40;96476.16;;;16.62;100.00
41334;BME280;27078;46.428;6.256;2022-09-01T03:01:31;96474.47;;;16.61;100.00
41334;BME280;27078;46.428;6.256;2022-09-01T03:03:59;96475.94;;;16.63;100.00
41334;BME280;27078;46.428;6.256;2022-09-01T03:06:26;96475.38;;;16.76;100.00
41334;BME280;27078;46.428;6.256;2022-09-01T03:08:54;96472.78;;;16.68;100.00
41334;BME280;27078;46.428;6.256;2022-09-01T03:11:21;96476.16;;;16.62;100.00
41334;BME280;27078;46.428;6.256;2022-09-01T03:13:48;96476.31;;;16.60;100.00
41334;BME280;27078;46.428;6.256;2022-09-01T03:16:13;96474.13;;;16.64;100.00
41334;BME280;27078;46.428;6.256;2022-09-01T03:18:40;96472.19;;;16.49;100.00
41334;BME280;27078;46.428;6.256;2022-09-01T03:21:07;96474.53;;;16.44;100.00
41334;BME280;27078;46.428;6.256;2022-09-01T03:23:35;96483.69;;;16.42;100.00
41334;BME280;27078;46.428;6.256;2022-09-01T03:26:02;96474.16;;;16.56;100.00
41334;BME280;27078;46.428;6.256;2022-09-01T03:28:28;96477.78;;;16.63;100.00
41334;BME280;27078;46.428;6.256;2022-09-01T03:30:55;96472.44;;;16.71;100.00
41334;BME280;27078;46.428;6.256;2022-09-01T03:33:22;96475.75;;;16.73;100.00
41334;BME280;27078;46.428;6.256;2022-09-01T03:35:49;96483.47;;;16.60;100.00
41334;BME280;27078;46.428;6.256;2022-09-01T03:38:15;96478.81;;;16.62;100.00
41334;BME280;27078;46.428;6.256;2022-09-01T03:40:53;96472.28;;;16.64;100.00
41334;BME280;27078;46.428;6.256;2022-09-01T03:43:19;96474.47;;;16.61;100.00
41334;BME280;27078;46.428;6.256;2022-09-01T03:45:49;96473.41;;;16.39;100.00
41334;BME280;27078;46.428;6.256;2022-09-01T03:48:14;96461.41;;;16.35;100.00
41334;BME280;27078;46.428;6.256;2022-09-01T03:50:42;96472.91;;;16.27;100.00
41334;BME280;27078;46.428;6.256;2022-09-01T03:53:19;96468.25;;;16.29;100.00
41334;BME280;27078;46.428;6.256;2022-09-01T03:55:48;96468.59;;;16.26;100.00
41334;BME280;27078;46.428;6.256;2022-09-01T03:58:16;96467.75;;;16.25;100.00
41334;BME280;27078;46.428;6.256;2022-09-01T04:00:46;96466.97;;;16.08;100.00
41334;BME280;27078;46.428;6.256;2022-09-01T04:03:14;96468.50;;;16.03;100.00
41334;BME280;27078;46.428;6.256;2022-09-01T04:05:48;96460.16;;;16.06;100.00
41334;BME280;27078;46.428;6.256;2022-09-01T04:08:13;96470.78;;;16.14;100.00
41334;BME280;27078;46.428;6.256;2022-09-01T04:10:47;96468.13;;;16.14;100.00
41334;BME280;27078;46.428;6.256;2022-09-01T04:13:26;96464.63;;;16.14;100.00
41334;BME280;27078;46.428;6.256;2022-09-01T04:15:52;96464.34;;;16.00;100.00
41334;BME280;27078;46.428;6.256;2022-09-01T04:18:18;96472.66;;;15.97;100.00
41334;BME280;27078;46.428;6.256;2022-09-01T04:23:36;96464.81;;;16.04;100.00
41334;BME280;27078;46.428;6.256;2022-09-01T04:26:08;96476.66;;;16.01;100.00
41334;BME280;27078;46.428;6.256;2022-09-01T04:28:45;96472.81;;;16.04;100.00
41334;BME280;27078;46.428;6.256;2022-09-01T04:31:15;96468.50;;;16.03;100.00
41334;BME280;27078;46.428;6.256;2022-09-01T04:33:43;96474.16;;;16.00;100.00
41334;BME280;27078;46.428;6.256;2022-09-01T04:36:17;96470.66;;;15.91;100.00
41334;BME280;27078;46.428;6.256;2022-09-01T04:38:48;96470.50;;;15.84;100.00
41334;BME280;27078;46.428;6.256;2022-09-01T04:41:14;96465.19;;;15.93;100.00
41334;BME280;27078;46.428;6.256;2022-09-01T04:43:44;96468.00;;;15.91;100.00
41334;BME280;27078;46.428;6.256;2022-09-01T04:46:11;96473.69;;;15.96;100.00
41334;BME280;27078;46.428;6.256;2022-09-01T04:48:39;96478.66;;;15.99;100.00
41334;BME280;27078;46.428;6.256;2022-09-01T04:51:07;96466.16;;;16.00;100.00
41334;BME280;27078;46.428;6.256;2022-09-01T04:53:38;96473.69;;;15.96;100.00
41334;BME280;27078;46.428;6.256;2022-09-01T04:56:05;96471.16;;;15.95;100.00
41334;BME280;27078;46.428;6.256;2022-09-01T04:58:32;96465.34;;;15.91;100.00
41334;BME280;27078;46.428;6.256;2022-09-01T05:00:58;96469.84;;;15.82;100.00
41334;BME280;27078;46.428;6.256;2022-09-01T05:03:25;96467.34;;;15.81;100.00
41334;BME280;27078;46.428;6.256;2022-09-01T05:05:51;96472.38;;;15.76;100.00
41334;BME280;27078;46.428;6.256;2022-09-01T05:08:20;96470.72;;;15.75;100.00
41334;BME280;27078;46.428;6.256;2022-09-01T05:10:49;96468.06;;;15.75;100.00
41334;BME280;27078;46.428;6.256;2022-09-01T05:13:16;96473.34;;;15.66;100.00
41334;BME280;27078;46.428;6.256;2022-09-01T05:15:43;96476.66;;;15.60;100.00
41334;BME280;27078;46.428;6.256;2022-09-01T05:18:14;96479.50;;;15.59;100.00
41334;BME280;27078;46.428;6.256;2022-09-01T05:20:41;96473.66;;;15.47;100.00
41334;BME280;27078;46.428;6.256;2022-09-01T05:23:08;96483.31;;;15.40;100.00
41334;BME280;27078;46.428;6.256;2022-09-01T05:25:41;96486.97;;;15.47;100.00
41334;BME280;27078;46.428;6.256;2022-09-01T05:28:10;96477.34;;;15.54;100.00
41334;BME280;27078;46.428;6.256;2022-09-01T05:30:38;96489.63;;;15.55;100.00
41334;BME280;27078;46.428;6.256;2022-09-01T05:33:04;96489.31;;;15.58;100.00
41334;BME280;27078;46.428;6.256;2022-09-01T05:35:35;96488.81;;;15.63;100.00
41334;BME280;27078;46.428;6.256;2022-09-01T05:38:01;96488.47;;;15.66;100.00
41334;BME280;27078;46.428;6.256;2022-09-01T05:40:27;96493.81;;;15.74;100.00
41334;BME280;27078;46.428;6.256;2022-09-01T05:42:53;96484.00;;;15.83;100.00
41334;BME280;27078;46.428;6.256;2022-09-01T05:45:20;96483.16;;;15.91;100.00
41334;BME280;27078;46.428;6.256;2022-09-01T05:47:47;96487.31;;;16.01;100.00
41334;BME280;27078;46.428;6.256;2022-09-01T05:50:13;96488.31;;;16.00;100.00
41334;BME280;27078;46.428;6.256;2022-09-01T05:52:43;96484.97;;;16.06;100.00
41334;BME280;27078;46.428;6.256;2022-09-01T05:55:12;96483.94;;;16.16;100.00
41334;BME280;27078;46.428;6.256;2022-09-01T05:57:38;96487.25;;;16.26;100.00
41334;BME280;27078;46.428;6.256;2022-09-01T06:00:07;96486.88;;;16.37;100.00
41334;BME280;27078;46.428;6.256;2022-09-01T06:02:41;96490.19;;;16.47;100.00
41334;BME280;27078;46.428;6.256;2022-09-01T06:05:07;96489.81;;;16.59;100.00
41334;BME280;27078;46.428;6.256;2022-09-01T06:07:33;96491.94;;;16.63;100.00
41334;BME280;27078;46.428;6.256;2022-09-01T06:10:02;96483.78;;;16.65;100.00
41334;BME280;27078;46.428;6.256;2022-09-01T06:12:28;96500.72;;;16.80;100.00
41334;BME280;27078;46.428;6.256;2022-09-01T06:14:54;96493.88;;;16.86;100.00
41334;BME280;27078;46.428;6.256;2022-09-01T06:17:22;96487.00;;;17.00;100.00
41334;BME280;27078;46.428;6.256;2022-09-01T06:19:50;96486.91;;;17.08;100.00
41334;BME280;27078;46.428;6.256;2022-09-01T06:22:17;96484.03;;;17.18;100.00
41334;BME280;27078;46.428;6.256;2022-09-01T06:24:45;96489.50;;;17.24;100.00
41334;BME280;27078;46.428;6.256;2022-09-01T06:27:13;96492.16;;;17.24;100.00
41334;BME280;27078;46.428;6.256;2022-09-01T06:29:42;96489.59;;;17.31;100.00
41334;BME280;27078;46.428;6.256;2022-09-01T06:32:09;96483.41;;;17.39;100.00
41334;BME280;27078;46.428;6.256;2022-09-01T06:34:43;96498.69;;;17.45;100.00
41334;BME280;27078;46.428;6.256;2022-09-01T06:37:09;96493.31;;;17.53;100.00
41334;BME280;27078;46.428;6.256;2022-09-01T06:39:35;96495.66;;;17.71;100.00
41334;BME280;27078;46.428;6.256;2022-09-01T06:42:01;96486.06;;;17.85;100.00
41334;BME280;27078;46.428;6.256;2022-09-01T06:44:27;96487.63;;;17.94;100.00
41334;BME280;27078;46.428;6.256;2022-09-01T06:46:56;96482.88;;;18.04;100.00
41334;BME280;27078;46.428;6.256;2022-09-01T06:49:22;96475.03;;;18.18;100.00
41334;BME280;27078;46.428;6.256;2022-09-01T06:51:53;96487.13;;;18.28;100.00
41334;BME280;27078;46.428;6.256;2022-09-01T06:54:18;96485.94;;;18.31;100.00
41334;BME280;27078;46.428;6.256;2022-09-01T06:56:45;96475.53;;;18.36;100.00
41334;BME280;27078;46.428;6.256;2022-09-01T06:59:11;96478.66;;;18.40;100.00
41334;BME280;27078;46.428;6.256;2022-09-01T07:01:39;96478.75;;;18.46;100.00
41334;BME280;27078;46.428;6.256;2022-09-01T07:04:05;96482.06;;;18.48;100.00
41334;BME280;27078;46.428;6.256;2022-09-01T07:06:30;96480.31;;;18.56;100.00
41334;BME280;27078;46.428;6.256;2022-09-01T07:08:57;96483.06;;;18.62;100.00
41334;BME280;27078;46.428;6.256;2022-09-01T07:11:26;96479.09;;;18.73;100.00
41334;BME280;27078;46.428;6.256;2022-09-01T07:13:56;96492.84;;;18.85;100.00
41334;BME280;27078;46.428;6.256;2022-09-01T07:16:23;96492.75;;;18.93;100.00
41334;BME280;27078;46.428;6.256;2022-09-01T07:18:50;96490.63;;;19.03;100.00
41334;BME280;27078;46.428;6.256;2022-09-01T07:21:17;96486.63;;;19.14;100.00
41334;BME280;27078;46.428;6.256;2022-09-01T07:23:42;96483.44;;;19.25;100.00
41334;BME280;27078;46.428;6.256;2022-09-01T07:26:08;96490.25;;;19.28;100.00
41334;BME280;27078;46.428;6.256;2022-09-01T07:28:35;96485.00;;;19.35;100.00
41334;BME280;27078;46.428;6.256;2022-09-01T07:31:01;96489.75;;;19.39;100.00
41334;BME280;27078;46.428;6.256;2022-09-01T07:33:30;96489.81;;;19.46;100.00
41334;BME280;27078;46.428;6.256;2022-09-01T07:35:56;96492.09;;;19.49;100.00
41334;BME280;27078;46.428;6.256;2022-09-01T07:38:25;96485.56;;;19.51;100.00
41334;BME280;27078;46.428;6.256;2022-09-01T07:40:53;96485.00;;;19.56;100.00
41334;BME280;27078;46.428;6.256;2022-09-01T07:43:21;96486.00;;;19.55;100.00
41334;BME280;27078;46.428;6.256;2022-09-01T07:45:53;96487.78;;;19.91;100.00
41334;BME280;27078;46.428;6.256;2022-09-01T07:48:25;96492.31;;;20.19;100.00
41334;BME280;27078;46.428;6.256;2022-09-01T07:50:53;96489.16;;;20.37;100.00
41334;BME280;27078;46.428;6.256;2022-09-01T07:53:23;96492.63;;;20.65;100.00
41334;BME280;27078;46.428;6.256;2022-09-01T07:55:50;96489.97;;;20.72;100.00
41334;BME280;27078;46.428;6.256;2022-09-01T07:58:18;96495.63;;;20.90;100.00
41334;BME280;27078;46.428;6.256;2022-09-01T08:00:44;96496.72;;;21.03;100.00
41334;BME280;27078;46.428;6.256;2022-09-01T08:03:12;96493.00;;;21.04;100.00
41334;BME280;27078;46.428;6.256;2022-09-01T08:05:38;96485.63;;;21.19;100.00
41334;BME280;27078;46.428;6.256;2022-09-01T08:08:05;96488.09;;;21.21;100.00
41334;BME280;27078;46.428;6.256;2022-09-01T08:10:30;96493.63;;;20.58;100.00
41334;BME280;27078;46.428;6.256;2022-09-01T08:12:56;96497.69;;;20.88;100.00
41334;BME280;27078;46.428;6.256;2022-09-01T08:15:21;96501.47;;;21.01;100.00
41334;BME280;27078;46.428;6.256;2022-09-01T08:17:47;96502.16;;;21.23;100.00
41334;BME280;27078;46.428;6.256;2022-09-01T08:20:12;96492.75;;;21.47;100.00
41334;BME280;27078;46.428;6.256;2022-09-01T08:22:38;96492.28;;;21.37;100.00
41334;BME280;27078;46.428;6.256;2022-09-01T08:25:06;96487.78;;;21.44;100.00
41334;BME280;27078;46.428;6.256;2022-09-01T08:27:33;96491.13;;;21.59;100.00
41334;BME280;27078;46.428;6.256;2022-09-01T08:30:02;96485.09;;;21.44;100.00
41334;BME280;27078;46.428;6.256;2022-09-01T08:32:29;96496.06;;;21.49;100.00
41334;BME280;27078;46.428;6.256;2022-09-01T08:34:54;96485.75;;;21.79;100.00
41334;BME280;27078;46.428;6.256;2022-09-01T08:37:21;96489.06;;;22.01;100.00
41334;BME280;27078;46.428;6.256;2022-09-01T08:39:46;96486.38;;;22.34;100.00
41334;BME280;27078;46.428;6.256;2022-09-01T08:42:30;96489.09;;;22.28;100.00
41334;BME280;27078;46.428;6.256;2022-09-01T08:47:31;96480.31;;;22.66;97.79
41334;BME280;27078;46.428;6.256;2022-09-01T08:49:57;96487.06;;;22.95;94.85
41334;BME280;27078;46.428;6.256;2022-09-01T08:52:34;96484.09;;;22.45;94.55
41334;BME280;27078;46.428;6.256;2022-09-01T08:55:27;96487.94;;;22.82;94.99
41334;BME280;27078;46.428;6.256;2022-09-01T08:57:58;96479.41;;;22.85;95.72
41334;BME280;27078;46.428;6.256;2022-09-01T09:00:27;96481.47;;;22.96;94.27
41334;BME280;27078;46.428;6.256;2022-09-01T09:03:13;96481.81;;;23.20;91.46
41334;BME280;27078;46.428;6.256;2022-09-01T09:11:39;96490.44;;;23.29;89.37
41334;BME280;27078;46.428;6.256;2022-09-01T09:17:09;96482.22;;;23.17;90.47
41334;BME280;27078;46.428;6.256;2022-09-01T09:19:39;96487.28;;;23.38;88.48
41334;BME280;27078;46.428;6.256;2022-09-01T09:22:08;96482.19;;;23.62;88.26
41334;BME280;27078;46.428;6.256;2022-09-01T09:27:22;96484.28;;;23.85;84.43
41334;BME280;27078;46.428;6.256;2022-09-01T09:29:51;96474.84;;;24.01;81.96
41334;BME280;27078;46.428;6.256;2022-09-01T09:32:18;96477.63;;;24.13;83.58
41334;BME280;27078;46.428;6.256;2022-09-01T09:34:45;96475.50;;;24.22;82.63
41334;BME280;27078;46.428;6.256;2022-09-01T09:37:30;96468.84;;;23.99;83.13
41334;BME280;27078;46.428;6.256;2022-09-01T09:42:42;96478.19;;;24.22;81.82
41334;BME280;27078;46.428;6.256;2022-09-01T09:45:35;96468.41;;;24.02;77.26
41334;BME280;27078;46.428;6.256;2022-09-01T09:48:07;96473.81;;;23.77;81.26
41334;BME280;27078;46.428;6.256;2022-09-01T09:50:35;96474.09;;;23.94;80.93
41334;BME280;27078;46.428;6.256;2022-09-01T09:53:12;96466.16;;;23.99;81.83
41334;BME280;27078;46.428;6.256;2022-09-01T09:55:57;96471.16;;;24.21;80.50
41334;BME280;27078;46.428;6.256;2022-09-01T09:58:28;96465.88;;;24.07;80.21
41334;BME280;27078;46.428;6.256;2022-09-01T10:03:43;96456.50;;;24.10;79.34
41334;BME280;27078;46.428;6.256;2022-09-01T10:06:15;96459.16;;;24.16;77.25
41334;BME280;27078;46.428;6.256;2022-09-01T10:08:54;96456.72;;;24.08;75.67
41334;BME280;27078;46.428;6.256;2022-09-01T10:11:29;96465.00;;;24.13;74.86
41334;BME280;27078;46.428;6.256;2022-09-01T10:13:55;96450.66;;;24.13;76.71
41334;BME280;27078;46.428;6.256;2022-09-01T10:16:28;96454.63;;;24.10;77.22
41334;BME280;27078;46.428;6.256;2022-09-01T10:18:57;96454.47;;;24.30;76.75
41334;BME280;27078;46.428;6.256;2022-09-01T10:21:37;96449.38;;;24.41;74.69
41334;BME280;27078;46.428;6.256;2022-09-01T10:24:24;96460.06;;;24.54;74.63
41334;BME280;27078;46.428;6.256;2022-09-01T10:26:56;96462.91;;;24.34;75.32
41334;BME280;27078;46.428;6.256;2022-09-01T10:29:30;96456.03;;;24.38;75.22
41334;BME280;27078;46.428;6.256;2022-09-01T10:31:58;96458.88;;;24.25;76.84
41334;BME280;27078;46.428;6.256;2022-09-01T10:34:26;96462.06;;;24.15;77.11
41334;BME280;27078;46.428;6.256;2022-09-01T10:36:54;96460.41;;;24.14;76.83
41334;BME280;27078;46.428;6.256;2022-09-01T10:39:20;96454.56;;;24.17;76.32
41334;BME280;27078;46.428;6.256;2022-09-01T10:41:51;96451.91;;;24.35;75.27
41334;BME280;27078;46.428;6.256;2022-09-01T10:46:57;96453.84;;;24.53;73.71
41334;BME280;27078;46.428;6.256;2022-09-01T10:51:55;96453.31;;;24.63;70.16
41334;BME280;27078;46.428;6.256;2022-09-01T10:57:10;96449.66;;;24.57;71.02
41334;BME280;27078;46.428;6.256;2022-09-01T10:59:45;96443.03;;;24.53;71.71
41334;BME280;27078;46.428;6.256;2022-09-01T11:02:16;96441.84;;;24.49;70.02
41334;BME280;27078;46.428;6.256;2022-09-01T11:10:07;96439.72;;;24.70;71.97
41334;BME280;27078;46.428;6.256;2022-09-01T11:33:32;96435.59;;;24.05;77.30
41334;BME280;27078;46.428;6.256;2022-09-01T11:36:11;96434.41;;;24.01;78.76
41334;BME280;27078;46.428;6.256;2022-09-01T11:38:48;96433.50;;;24.07;78.54
41334;BME280;27078;46.428;6.256;2022-09-01T11:41:24;96435.09;;;24.15;76.82
41334;BME280;27078;46.428;6.256;2022-09-01T11:43:52;96434.38;;;24.45;75.65
41334;BME280;27078;46.428;6.256;2022-09-01T11:46:25;96432.25;;;24.53;74.34
41334;BME280;27078;46.428;6.256;2022-09-01T11:48:51;96437.91;;;24.45;73.33
41334;BME280;27078;46.428;6.256;2022-09-01T11:51:17;96426.16;;;24.58;73.25
41334;BME280;27078;46.428;6.256;2022-09-01T11:53:43;96421.41;;;24.72;72.49
41334;BME280;27078;46.428;6.256;2022-09-01T11:56:27;96418.19;;;24.82;73.78
41334;BME280;27078;46.428;6.256;2022-09-01T11:58:53;96416.13;;;24.95;72.77
41334;BME280;27078;46.428;6.256;2022-09-01T12:01:21;96412.00;;;25.11;70.50
41334;BME280;27078;46.428;6.256;2022-09-01T12:03:48;96405.53;;;25.12;71.80
41334;BME280;27078;46.428;6.256;2022-09-01T12:06:24;96404.47;;;25.13;72.19
41334;BME280;27078;46.428;6.256;2022-09-01T12:08:56;96402.53;;;25.21;71.91
41334;BME280;27078;46.428;6.256;2022-09-01T12:11:30;96402.91;;;25.06;72.43
41334;BME280;27078;46.428;6.256;2022-09-01T12:14:00;96398.44;;;24.99;73.65
41334;BME280;27078;46.428;6.256;2022-09-01T12:16:27;96394.59;;;25.07;71.96
41334;BME280;27078;46.428;6.256;2022-09-01T12:18:56;96396.91;;;25.22;70.60
41334;BME280;27078;46.428;6.256;2022-09-01T12:21:34;96395.88;;;25.23;70.46
41334;BME280;27078;46.428;6.256;2022-09-01T12:24:11;96397.34;;;25.19;73.30
41334;BME280;27078;46.428;6.256;2022-09-01T12:26:38;96394.47;;;25.02;70.02
41334;BME280;27078;46.428;6.256;2022-09-01T12:29:04;96405.22;;;24.90;70.05
41334;BME280;27078;46.428;6.256;2022-09-01T12:31:31;96398.84;;;24.85;71.99
41334;BME280;27078;46.428;6.256;2022-09-01T12:33:57;96392.69;;;24.96;70.56
41334;BME280;27078;46.428;6.256;2022-09-01T12:36:35;96392.28;;;24.62;70.47
41334;BME280;27078;46.428;6.256;2022-09-01T12:41:43;96376.56;;;24.89;71.60
41334;BME280;27078;46.428;6.256;2022-09-01T12:46:58;96374.41;;;25.10;71.62
41334;BME280;27078;46.428;6.256;2022-09-01T12:49:36;96378.75;;;25.11;72.15
41334;BME280;27078;46.428;6.256;2022-09-01T12:52:20;96375.47;;;25.09;71.33
41334;BME280;27078;46.428;6.256;2022-09-01T12:54:51;96375.09;;;25.05;70.79
41334;BME280;27078;46.428;6.256;2022-09-01T12:57:28;96381.63;;;24.97;71.23
41334;BME280;27078;46.428;6.256;2022-09-01T13:00:07;96387.03;;;24.97;71.30
41334;BME280;27078;46.428;6.256;2022-09-01T13:02:36;96396.16;;;25.15;69.93
41334;BME280;27078;46.428;6.256;2022-09-01T13:07:52;96395.63;;;25.25;70.24
41334;BME280;27078;46.428;6.256;2022-09-01T13:10:18;96391.50;;;25.22;69.87
41334;BME280;27078;46.428;6.256;2022-09-01T13:12:44;96391.41;;;25.29;70.96
41334;BME280;27078;46.428;6.256;2022-09-01T13:15:11;96396.25;;;25.38;67.77
41334;BME280;27078;46.428;6.256;2022-09-01T13:17:36;96389.66;;;25.34;68.23
41334;BME280;27078;46.428;6.256;2022-09-01T13:20:04;96386.47;;;25.37;68.68
41334;BME280;27078;46.428;6.256;2022-09-01T13:22:30;96377.34;;;25.38;69.28
41334;BME280;27078;46.428;6.256;2022-09-01T13:24:55;96379.81;;;25.52;70.48
41334;BME280;27078;46.428;6.256;2022-09-01T13:27:20;96375.84;;;25.66;69.49
41334;BME280;27078;46.428;6.256;2022-09-01T13:29:46;96382.31;;;25.77;68.10
41334;BME280;27078;46.428;6.256;2022-09-01T13:32:12;96371.38;;;25.84;67.23
41334;BME280;27078;46.428;6.256;2022-09-01T13:34:38;96375.91;;;26.02;65.80
41334;BME280;27078;46.428;6.256;2022-09-01T13:37:04;96375.41;;;26.05;65.19
41334;BME280;27078;46.428;6.256;2022-09-01T13:39:29;96382.00;;;25.97;66.89
41334;BME280;27078;46.428;6.256;2022-09-01T13:41:54;96376.81;;;26.07;65.66
41334;BME280;27078;46.428;6.256;2022-09-01T13:44:20;96385.41;;;26.16;64.16
41334;BME280;27078;46.428;6.256;2022-09-01T13:46:45;96378.34;;;26.03;63.18
41334;BME280;27078;46.428;6.256;2022-09-01T13:49:11;96373.78;;;26.04;65.69
41334;BME280;27078;46.428;6.256;2022-09-01T13:51:36;96377.91;;;26.06;66.88
41334;BME280;27078;46.428;6.256;2022-09-01T13:54:03;96374.25;;;26.12;65.01
41334;BME280;27078;46.428;6.256;2022-09-01T13:56:28;96370.81;;;26.29;65.25
41334;BME280;27078;46.428;6.256;2022-09-01T13:58:53;96368.09;;;26.29;63.72
41334;BME280;27078;46.428;6.256;2022-09-01T14:01:19;96369.16;;;26.39;64.47
41334;BME280;27078;46.428;6.256;2022-09-01T14:03:45;96370.31;;;26.44;63.91
41334;BME280;27078;46.428;6.256;2022-09-01T14:06:12;96372.91;;;26.38;62.75